Time;durP1;ratioP1;P1;durP2;ratioP2;P2;SDS_P1;SDS_P2;PMS_P1;PMS_P2;Temp;Humidity;BMP_temperature;BMP_pressure;BME280_temperature;BME280_humidity;BME280_pressure;Samples;Min_cycle;Max_cycle;Signal;HPM_P1;HPM_P2
2022/11/11 00:00:51;;;;;;;18.05;5.95;;;;;;;;;;4995454;28;20445;-29
2022/11/11 00:03:17;;;;;;;11.77;4.97;;;;;;;;;;4995054;28;20049;-29
2022/11/11 00:05:43;;;;;;;22.67;4.90;;;;;;;;;;4995478;28;20319;-29
2022/11/11 00:08:09;;;;;;;17.73;5.47;;;;;;;;;;4995098;28;20107;-28
2022/11/11 00:10:36;;;;;;;15.30;4.57;;;;;;;;;;4995367;28;20057;-29
2022/11/11 00:13:02;;;;;;;27.23;5.57;;;;;;;;;;4995281;28;20026;-29
2022/11/11 00:15:29;;;;;;;21.15;5.53;;;;;;;;;;4995019;28;20050;-29
2022/11/11 00:26:13;;;;;;;12.70;5.05;;;;;;;;;;4981134;28;20065;-29
2022/11/11 00:28:39;;;;;;;13.25;4.38;;;;;;;;;;4998336;28;20037;-28
2022/11/11 00:31:10;;;;;;;15.02;5.03;;;;;;;;;;4998729;28;20084;-29
2022/11/11 00:33:36;;;;;;;17.52;5.07;;;;;;;;;;4998886;28;20389;-29
2022/11/11 00:36:03;;;;;;;18.83;4.60;;;;;;;;;;4998604;28;20030;-29
2022/11/11 00:38:44;;;;;;;14.63;4.50;;;;;;;;;;4981851;28;20062;-29
2022/11/11 00:41:10;;;;;;;;;;;;;;;;;;4999331;28;20369;-29
2022/11/11 00:43:36;;;;;;;10.30;4.25;;;;;;;;;;4981365;28;19911;-29
2022/11/11 00:51:32;;;;;;;15.00;4.60;;;;;;;;;;4998440;28;20042;-29
2022/11/11 00:53:58;;;;;;;14.65;5.50;;;;;;;;;;4998230;28;20030;-29
2022/11/11 00:56:25;;;;;;;17.27;5.05;;;;;;;;;;4981081;28;20121;-29
2022/11/11 00:58:51;;;;;;;14.13;5.25;;;;;;;;;;4998247;28;20022;-29
2022/11/11 01:01:17;;;;;;;11.52;4.97;;;;;;;;;;4981017;28;20038;-29
2022/11/11 01:03:43;;;;;;;13.60;3.97;;;;;;;;;;4997936;28;20047;-29
2022/11/11 01:06:12;;;;;;;14.07;4.20;;;;;;;;;;4998010;28;20038;-29
2022/11/11 01:08:38;;;;;;;13.93;4.85;;;;;;;;;;4998025;28;20104;-29
2022/11/11 01:11:04;;;;;;;15.27;4.70;;;;;;;;;;4997993;28;20030;-29
2022/11/11 01:13:31;;;;;;;9.50;5.13;;;;;;;;;;4998170;28;20037;-29
2022/11/11 01:16:05;;;;;;;11.93;6.43;;;;;;;;;;4998176;28;20445;-29
2022/11/11 01:18:31;;;;;;;14.65;5.57;;;;;;;;;;4997796;28;20057;-29
2022/11/11 01:20:58;;;;;;;10.85;3.85;;;;;;;;;;4998124;28;20027;-30
2022/11/11 01:23:24;;;;;;;12.52;5.50;;;;;;;;;;4998000;28;20019;-29
2022/11/11 01:25:51;;;;;;;13.38;4.80;;;;;;;;;;4997669;28;20050;-29
2022/11/11 01:28:17;;;;;;;13.25;4.38;;;;;;;;;;4997614;28;20086;-29
2022/11/11 01:30:44;;;;;;;12.05;4.55;;;;;;;;;;4997646;28;20030;-29
2022/11/11 01:33:11;;;;;;;14.13;4.05;;;;;;;;;;4997465;28;20051;-29
2022/11/11 01:35:38;;;;;;;10.95;4.93;;;;;;;;;;4980421;28;20125;-29
2022/11/11 01:38:06;;;;;;;12.75;4.32;;;;;;;;;;4979734;28;20498;-29
2022/11/11 01:40:39;;;;;;;20.48;4.30;;;;;;;;;;4979807;28;20023;-29
2022/11/11 01:43:05;;;;;;;15.88;5.05;;;;;;;;;;4980255;28;20058;-29
2022/11/11 01:45:44;;;;;;;21.73;5.32;;;;;;;;;;4980248;28;20022;-29
2022/11/11 01:51:21;;;;;;;11.82;4.22;;;;;;;;;;4997351;28;20088;-33
2022/11/11 01:53:49;;;;;;;9.05;4.57;;;;;;;;;;4980057;28;20022;-29
2022/11/11 01:56:16;;;;;;;11.32;3.90;;;;;;;;;;4980002;28;20461;-29
2022/11/11 01:58:42;;;;;;;11.68;4.30;;;;;;;;;;4997297;28;20038;-29
2022/11/11 02:01:08;;;;;;;15.50;4.57;;;;;;;;;;4964000;28;20027;-29
2022/11/11 02:03:36;;;;;;;12.68;5.57;;;;;;;;;;4979710;28;20473;-29
2022/11/11 02:06:02;;;;;;;18.02;6.55;;;;;;;;;;4979839;28;20042;-29
2022/11/11 02:08:32;;;;;;;12.45;4.18;;;;;;;;;;4996970;28;20117;-29
2022/11/11 02:11:04;;;;;;;14.23;4.05;;;;;;;;;;4979771;28;20026;-29
2022/11/11 02:16:15;;;;;;;11.23;4.10;;;;;;;;;;4996868;28;20077;-30
2022/11/11 02:18:42;;;;;;;13.00;4.40;;;;;;;;;;4996955;28;20364;-29
2022/11/11 02:21:12;;;;;;;10.70;4.20;;;;;;;;;;4996715;28;20018;-29
2022/11/11 02:23:41;;;;;;;9.43;4.15;;;;;;;;;;4996556;28;20027;-29
2022/11/11 02:26:09;;;;;;;12.43;4.47;;;;;;;;;;4996573;28;20057;-29
2022/11/11 02:28:37;;;;;;;12.63;3.92;;;;;;;;;;4996550;28;20034;-29
2022/11/11 02:31:03;;;;;;;7.03;4.22;;;;;;;;;;4996451;28;20465;-29
2022/11/11 02:33:29;;;;;;;11.25;4.45;;;;;;;;;;4979286;28;20531;-29
2022/11/11 02:35:58;;;;;;;16.95;5.97;;;;;;;;;;4996695;28;20030;-29
2022/11/11 02:38:25;;;;;;;11.10;4.70;;;;;;;;;;4996536;28;20072;-29
2022/11/11 02:43:36;;;;;;;6.82;4.05;;;;;;;;;;4996316;28;20117;-29
2022/11/11 02:46:03;;;;;;;17.02;4.30;;;;;;;;;;4996211;28;20045;-29
2022/11/11 02:48:30;;;;;;;17.60;5.88;;;;;;;;;;4996445;28;20385;-29
2022/11/11 02:50:56;;;;;;;10.35;5.00;;;;;;;;;;4978757;28;20357;-29
2022/11/11 02:53:23;;;;;;;7.60;3.60;;;;;;;;;;4996307;28;20484;-29
2022/11/11 02:55:49;;;;;;;15.15;4.40;;;;;;;;;;4978928;28;20125;-29
2022/11/11 02:58:15;;;;;;;7.78;4.03;;;;;;;;;;4996218;28;20033;-29
2022/11/11 03:00:42;;;;;;;11.98;4.85;;;;;;;;;;4978884;28;20373;-29
2022/11/11 03:03:08;;;;;;;10.10;4.28;;;;;;;;;;4975409;28;20378;-29
2022/11/11 03:05:35;;;;;;;12.52;4.55;;;;;;;;;;4976457;28;20031;-29
2022/11/11 03:08:01;;;;;;;9.52;3.72;;;;;;;;;;4976426;28;20041;-29
2022/11/11 03:10:28;;;;;;;12.13;3.90;;;;;;;;;;4976404;28;20093;-29
2022/11/11 03:12:55;;;;;;;16.10;4.35;;;;;;;;;;4976285;28;20031;-28
2022/11/11 03:15:22;;;;;;;9.77;4.00;;;;;;;;;;4976554;28;20038;-29
2022/11/11 03:17:48;;;;;;;11.05;4.53;;;;;;;;;;4976162;28;20030;-29
2022/11/11 03:23:01;;;;;;;12.85;4.20;;;;;;;;;;4976208;28;20110;-29
2022/11/11 03:25:37;;;;;;;12.00;4.82;;;;;;;;;;4976191;28;20031;-30
2022/11/11 03:28:13;;;;;;;11.05;3.97;;;;;;;;;;4976399;28;20065;-28
2022/11/11 03:30:40;;;;;;;7.97;3.88;;;;;;;;;;4976412;28;20046;-29
2022/11/11 03:33:06;;;;;;;11.93;4.03;;;;;;;;;;4976024;28;20088;-28
2022/11/11 03:35:33;;;;;;;15.93;4.93;;;;;;;;;;4976054;28;20085;-29
2022/11/11 03:38:14;;;;;;;12.32;4.20;;;;;;;;;;4975051;28;20088;-29
2022/11/11 03:40:40;;;;;;;;;;;;;;;;;;4976456;28;20038;-29
2022/11/11 03:43:06;;;;;;;6.93;3.75;;;;;;;;;;4976182;28;19910;-29
2022/11/11 03:45:33;;;;;;;15.45;5.60;;;;;;;;;;4974974;28;20034;-29
2022/11/11 03:47:59;;;;;;;14.18;3.85;;;;;;;;;;4975898;28;20030;-29
2022/11/11 03:50:25;;;;;;;8.25;3.38;;;;;;;;;;4975883;28;20481;-29
2022/11/11 03:52:51;;;;;;;14.45;4.97;;;;;;;;;;4976048;28;20038;-29
2022/11/11 03:55:17;;;;;;;11.00;5.05;;;;;;;;;;4975821;28;20039;-29
2022/11/11 03:57:45;;;;;;;10.77;4.55;;;;;;;;;;4976023;28;20118;-29
2022/11/11 04:00:15;;;;;;;23.30;4.70;;;;;;;;;;4976087;28;20030;-29
2022/11/11 04:10:58;;;;;;;10.23;4.78;;;;;;;;;;4999458;28;20040;-29
2022/11/11 04:16:10;;;;;;;10.77;4.82;;;;;;;;;;4999355;28;20045;-29
2022/11/11 04:26:56;;;;;;;11.15;3.42;;;;;;;;;;4999170;28;20116;-29
2022/11/11 04:29:28;;;;;;;9.23;4.50;;;;;;;;;;4998799;28;20365;-30
2022/11/11 04:34:47;;;;;;;11.25;3.33;;;;;;;;;;4999034;28;20045;-29
2022/11/11 04:37:14;;;;;;;13.65;5.07;;;;;;;;;;4998844;28;20030;-29
2022/11/11 04:42:26;;;;;;;9.82;4.32;;;;;;;;;;4998498;28;20393;-29
2022/11/11 04:47:37;;;;;;;7.20;3.80;;;;;;;;;;4998439;28;20138;-29
2022/11/11 04:50:04;;;;;;;10.77;4.50;;;;;;;;;;4998368;28;20058;-29
2022/11/11 04:52:30;;;;;;;6.53;3.45;;;;;;;;;;4998229;28;20048;-29
2022/11/11 04:57:45;;;;;;;10.68;4.38;;;;;;;;;;4998358;28;20049;-29
2022/11/11 05:00:13;;;;;;;9.25;3.53;;;;;;;;;;4998443;28;20037;-29
2022/11/11 05:05:25;;;;;;;9.85;3.78;;;;;;;;;;4998145;28;20046;-29
2022/11/11 05:10:37;;;;;;;15.10;5.25;;;;;;;;;;4998055;28;20049;-29
2022/11/11 05:21:19;;;;;;;11.95;4.05;;;;;;;;;;4997898;28;20168;-29
2022/11/11 05:26:30;;;;;;;11.82;4.90;;;;;;;;;;4998346;28;20041;-29
2022/11/11 05:28:56;;;;;;;9.63;3.95;;;;;;;;;;4980554;28;20034;-29
2022/11/11 05:31:22;;;;;;;7.70;3.30;;;;;;;;;;4997591;28;20030;-29
2022/11/11 05:33:48;;;;;;;7.72;3.35;;;;;;;;;;4997529;28;20101;-29
2022/11/11 05:36:14;;;;;;;9.30;4.47;;;;;;;;;;4997783;28;20086;-29
2022/11/11 05:38:40;;;;;;;7.28;3.40;;;;;;;;;;4980038;28;20132;-29
2022/11/11 05:41:07;;;;;;;9.18;4.00;;;;;;;;;;4997431;28;20106;-29
2022/11/11 05:43:33;;;;;;;11.52;4.22;;;;;;;;;;4997296;28;20351;-29
2022/11/11 05:45:59;;;;;;;12.65;4.40;;;;;;;;;;4997291;28;20022;-29
2022/11/11 05:48:26;;;;;;;16.45;3.90;;;;;;;;;;4997483;28;20026;-29
2022/11/11 05:50:52;;;;;;;10.88;3.38;;;;;;;;;;4980203;28;20121;-29
2022/11/11 05:53:22;;;;;;;12.73;5.82;;;;;;;;;;4996998;28;20442;-30
2022/11/11 05:55:52;;;;;;;14.23;4.97;;;;;;;;;;4997263;28;20045;-32
2022/11/11 05:58:18;;;;;;;10.85;3.80;;;;;;;;;;4979825;28;20038;-30
2022/11/11 06:00:45;;;;;;;10.23;4.20;;;;;;;;;;4997043;28;20026;-30
2022/11/11 06:03:11;;;;;;;9.98;3.83;;;;;;;;;;4996804;28;20050;-30
2022/11/11 06:05:37;;;;;;;13.25;4.00;;;;;;;;;;4997257;28;20034;-29
2022/11/11 06:08:04;;;;;;;8.20;3.95;;;;;;;;;;4996963;28;20034;-30
2022/11/11 06:10:30;;;;;;;7.43;3.72;;;;;;;;;;4996761;28;20061;-30
2022/11/11 06:13:09;;;;;;;10.52;3.92;;;;;;;;;;4997044;28;20477;-30
2022/11/11 06:15:36;;;;;;;11.02;3.47;;;;;;;;;;4996848;28;20509;-30
2022/11/11 06:18:04;;;;;;;12.32;4.03;;;;;;;;;;4996733;28;20433;-30
2022/11/11 06:20:30;;;;;;;6.65;3.63;;;;;;;;;;4996700;28;20026;-30
2022/11/11 06:22:56;;;;;;;13.80;3.88;;;;;;;;;;4996707;28;20026;-29
2022/11/11 06:28:15;;;;;;;11.65;4.03;;;;;;;;;;4996759;28;20041;-30
2022/11/11 06:30:41;;;;;;;7.15;3.65;;;;;;;;;;4996672;28;20027;-30
2022/11/11 06:33:08;;;;;;;5.68;3.33;;;;;;;;;;4996291;28;20031;-30
2022/11/11 06:35:38;;;;;;;9.60;3.70;;;;;;;;;;4996559;28;20038;-29
2022/11/11 06:38:04;;;;;;;8.40;4.30;;;;;;;;;;4996459;28;20041;-30
2022/11/11 06:40:30;;;;;;;12.82;4.22;;;;;;;;;;4996507;28;20438;-30
2022/11/11 06:42:57;;;;;;;14.80;4.53;;;;;;;;;;4996414;28;20088;-30
2022/11/11 06:45:24;;;;;;;6.45;2.85;;;;;;;;;;4996080;28;20089;-30
2022/11/11 06:47:50;;;;;;;8.55;4.15;;;;;;;;;;4996107;28;20038;-30
2022/11/11 06:50:16;;;;;;;13.18;3.30;;;;;;;;;;4996812;28;20295;-30
2022/11/11 06:52:42;;;;;;;16.05;3.72;;;;;;;;;;4995884;28;20092;-29
2022/11/11 06:55:09;;;;;;;10.43;4.55;;;;;;;;;;4996063;28;20105;-29
2022/11/11 06:57:35;;;;;;;10.43;4.38;;;;;;;;;;4995776;28;20026;-30
2022/11/11 07:00:02;;;;;;;6.88;4.07;;;;;;;;;;4995850;28;20030;-30
2022/11/11 07:02:28;;;;;;;9.98;3.88;;;;;;;;;;4995702;28;20401;-30
2022/11/11 07:04:54;;;;;;;10.60;4.53;;;;;;;;;;4978712;28;20034;-30
2022/11/11 07:07:21;;;;;;;7.25;3.47;;;;;;;;;;4995767;28;20030;-30
2022/11/11 07:09:47;;;;;;;9.07;3.63;;;;;;;;;;4995934;28;20169;-30
2022/11/11 07:12:13;;;;;;;9.30;4.57;;;;;;;;;;4995890;28;20049;-30
2022/11/11 07:14:39;;;;;;;11.45;3.83;;;;;;;;;;4995674;28;20026;-29
2022/11/11 07:17:06;;;;;;;10.18;4.18;;;;;;;;;;4995490;28;20026;-30
2022/11/11 07:19:32;;;;;;;12.80;4.10;;;;;;;;;;4995575;28;20097;-30
2022/11/11 07:21:58;;;;;;;12.43;4.15;;;;;;;;;;4995563;28;20122;-30
2022/11/11 07:24:24;;;;;;;13.95;3.80;;;;;;;;;;4995433;28;20109;-30
2022/11/11 07:26:51;;;;;;;10.55;3.33;;;;;;;;;;4978354;28;20026;-29
2022/11/11 07:29:17;;;;;;;12.02;3.72;;;;;;;;;;4995401;28;20022;-30
2022/11/11 07:31:43;;;;;;;7.78;3.20;;;;;;;;;;4995098;28;20022;-30
2022/11/11 07:34:09;;;;;;;11.20;4.38;;;;;;;;;;4995547;28;20022;-30
2022/11/11 07:36:35;;;;;;;9.60;3.47;;;;;;;;;;4994731;28;20033;-30
2022/11/11 07:39:01;;;;;;;13.90;4.35;;;;;;;;;;4995269;28;20041;-29
2022/11/11 07:41:27;;;;;;;11.05;3.67;;;;;;;;;;4995262;28;20030;-29
2022/11/11 07:43:54;;;;;;;10.20;3.50;;;;;;;;;;4995110;28;20030;-30
2022/11/11 07:46:20;;;;;;;19.95;3.53;;;;;;;;;;4995236;28;20428;-30
2022/11/11 07:48:46;;;;;;;9.43;4.90;;;;;;;;;;4995434;28;20030;-30
2022/11/11 07:51:12;;;;;;;10.98;3.10;;;;;;;;;;4995147;28;20054;-30
2022/11/11 07:53:38;;;;;;;14.52;3.65;;;;;;;;;;4994983;28;20446;-29
2022/11/11 07:56:05;;;;;;;13.15;4.38;;;;;;;;;;4995050;28;20050;-30
2022/11/11 07:58:31;;;;;;;13.45;4.07;;;;;;;;;;4994931;28;20026;-29
2022/11/11 08:00:59;;;;;;;15.20;3.97;;;;;;;;;;4995081;28;20033;-30
2022/11/11 08:03:25;;;;;;;12.65;4.10;;;;;;;;;;4994845;28;20049;-30
2022/11/11 08:05:52;;;;;;;10.07;4.10;;;;;;;;;;4995329;28;20315;-30
2022/11/11 08:08:23;;;;;;;10.98;3.63;;;;;;;;;;4977857;28;20026;-29
2022/11/11 08:10:50;;;;;;;15.65;3.83;;;;;;;;;;4994951;28;20035;-30
2022/11/11 08:16:02;;;;;;;17.20;3.97;;;;;;;;;;4995318;28;20114;-30
2022/11/11 08:18:29;;;;;;;16.77;3.97;;;;;;;;;;4995085;28;20038;-28
2022/11/11 08:20:55;;;;;;;8.50;3.10;;;;;;;;;;4994905;28;20026;-28
2022/11/11 08:23:31;;;;;;;14.07;3.42;;;;;;;;;;4994802;28;20031;-30
2022/11/11 08:25:57;;;;;;;10.50;4.28;;;;;;;;;;4994823;28;20101;-28
2022/11/11 08:28:24;;;;;;;8.63;3.75;;;;;;;;;;4994750;28;20092;-28
2022/11/11 08:30:50;;;;;;;11.32;3.08;;;;;;;;;;4995146;28;20045;-28
2022/11/11 08:33:16;;;;;;;13.45;3.63;;;;;;;;;;4994825;28;20482;-31
2022/11/11 08:35:42;;;;;;;11.48;3.40;;;;;;;;;;4977668;28;20035;-28
2022/11/11 08:38:08;;;;;;;13.40;3.78;;;;;;;;;;4994756;28;20034;-28
2022/11/11 08:40:34;;;;;;;15.05;3.88;;;;;;;;;;4994655;28;20054;-28
2022/11/11 08:43:01;;;;;;;8.95;3.35;;;;;;;;;;4994580;28;20366;-28
2022/11/11 08:45:27;;;;;;;11.25;4.35;;;;;;;;;;4994640;28;20094;-28
2022/11/11 08:47:53;;;;;;;11.60;3.42;;;;;;;;;;4977947;28;20070;-28
2022/11/11 08:50:19;;;;;;;15.48;3.22;;;;;;;;;;4998388;28;20077;-28
2022/11/11 08:52:49;;;;;;;15.80;4.68;;;;;;;;;;4998173;28;20026;-28
2022/11/11 08:55:16;;;;;;;15.77;3.72;;;;;;;;;;4998201;28;20026;-28
2022/11/11 08:57:42;;;;;;;7.82;3.20;;;;;;;;;;4998252;28;20026;-28
2022/11/11 09:00:10;;;;;;;16.70;3.22;;;;;;;;;;4980700;28;20104;-28
2022/11/11 09:02:36;;;;;;;12.75;3.40;;;;;;;;;;4997767;28;20377;-28
2022/11/11 09:05:03;;;;;;;10.07;2.95;;;;;;;;;;4997994;28;20057;-28
2022/11/11 09:07:29;;;;;;;27.13;4.07;;;;;;;;;;4998505;28;20037;-29
2022/11/11 09:09:55;;;;;;;13.10;3.67;;;;;;;;;;4997929;28;20030;-28
2022/11/11 09:12:22;;;;;;;10.65;4.38;;;;;;;;;;4997723;28;20041;-28
2022/11/11 09:14:48;;;;;;;10.48;3.22;;;;;;;;;;4998060;28;20168;-28
2022/11/11 09:17:15;;;;;;;17.52;4.13;;;;;;;;;;4997565;28;20081;-28
2022/11/11 09:19:41;;;;;;;14.38;4.18;;;;;;;;;;4980614;28;20105;-24
2022/11/11 09:22:08;;;;;;;15.32;3.65;;;;;;;;;;4980577;28;20033;-27
2022/11/11 09:24:34;;;;;;;15.43;3.00;;;;;;;;;;4997745;28;20068;-28
2022/11/11 09:27:00;;;;;;;13.30;3.22;;;;;;;;;;4997936;28;20026;-27
2022/11/11 09:29:26;;;;;;;10.75;3.55;;;;;;;;;;4997995;28;20026;-26
2022/11/11 09:31:52;;;;;;;5.43;3.30;;;;;;;;;;4980419;28;20417;-25
2022/11/11 09:34:18;;;;;;;16.60;4.45;;;;;;;;;;4997569;28;20457;-27
2022/11/11 09:36:45;;;;;;;12.82;3.85;;;;;;;;;;4997430;28;20026;-24
2022/11/11 09:39:11;;;;;;;11.90;3.25;;;;;;;;;;4997480;28;20025;-25
2022/11/11 09:41:43;;;;;;;14.85;3.78;;;;;;;;;;4997379;28;20018;-26
2022/11/11 09:44:19;;;;;;;8.98;3.08;;;;;;;;;;4997647;28;20034;-26
2022/11/11 09:46:48;;;;;;;13.07;3.83;;;;;;;;;;4980049;28;20023;-29
2022/11/11 09:49:32;;;;;;;11.88;4.25;;;;;;;;;;4980197;28;20074;-24
2022/11/11 09:52:12;;;;;;;6.97;3.53;;;;;;;;;;4997047;28;20096;-24
2022/11/11 09:54:44;;;;;;;14.73;4.25;;;;;;;;;;4997350;28;20361;-28
2022/11/11 09:57:16;;;;;;;20.52;4.75;;;;;;;;;;4997071;28;20468;-26
2022/11/11 09:59:48;;;;;;;11.82;3.88;;;;;;;;;;4996346;28;20105;-28
2022/11/11 10:02:35;;;;;;;11.55;3.75;;;;;;;;;;4997188;28;20413;-27
2022/11/11 10:05:27;;;;;;;11.90;3.20;;;;;;;;;;4997161;28;20022;-26
2022/11/11 10:08:20;;;;;;;11.85;3.95;;;;;;;;;;4976388;28;20434;-28
2022/11/11 10:10:47;;;;;;;19.30;4.35;;;;;;;;;;4967372;28;20034;-24
2022/11/11 10:13:15;;;;;;;15.90;4.38;;;;;;;;;;4996965;28;20034;-26
2022/11/11 10:15:49;;;;;;;10.07;3.15;;;;;;;;;;4996705;28;20027;-24
2022/11/11 10:18:15;;;;;;;8.68;3.70;;;;;;;;;;4996713;28;20042;-23
2022/11/11 10:20:42;;;;;;;12.70;3.17;;;;;;;;;;4996858;28;20022;-23
2022/11/11 10:23:15;;;;;;;13.23;3.40;;;;;;;;;;4996505;28;20073;-28
2022/11/11 10:26:08;;;;;;;8.60;3.10;;;;;;;;;;4979461;28;20019;-23
2022/11/11 10:28:38;;;;;;;9.07;3.03;;;;;;;;;;4967176;28;20322;-25
2022/11/11 10:31:11;;;;;;;10.73;3.80;;;;;;;;;;4996710;28;20458;-23
2022/11/11 10:33:49;;;;;;;22.98;5.80;;;;;;;;;;4996696;28;20408;-26
2022/11/11 10:36:18;;;;;;;20.23;4.05;;;;;;;;;;4996457;28;20513;-29
2022/11/11 10:38:51;;;;;;;8.13;4.35;;;;;;;;;;4996273;28;20023;-23
2022/11/11 10:41:39;;;;;;;12.18;3.65;;;;;;;;;;4996220;28;20036;-24
2022/11/11 10:44:24;;;;;;;11.77;3.55;;;;;;;;;;4996528;28;20369;-27
2022/11/11 10:47:04;;;;;;;20.75;4.45;;;;;;;;;;4996217;28;20031;-24
2022/11/11 10:49:32;;;;;;;21.35;4.88;;;;;;;;;;4996419;28;20404;-23
2022/11/11 10:52:01;;;;;;;16.92;3.17;;;;;;;;;;4996235;28;20026;-25
2022/11/11 10:54:57;;;;;;;11.88;3.28;;;;;;;;;;4996179;28;20066;-24
2022/11/11 10:57:46;;;;;;;18.85;4.03;;;;;;;;;;4979611;28;20053;-25
2022/11/11 11:00:14;;;;;;;10.75;3.90;;;;;;;;;;4986060;28;20042;-25
2022/11/11 11:02:45;;;;;;;11.45;3.58;;;;;;;;;;4978650;28;20128;-23
2022/11/11 11:05:27;;;;;;;10.93;4.03;;;;;;;;;;4996381;28;20169;-25
2022/11/11 11:07:55;;;;;;;16.13;5.10;;;;;;;;;;4995795;28;20120;-23
2022/11/11 11:10:24;;;;;;;14.10;3.83;;;;;;;;;;4996012;28;20460;-24
2022/11/11 11:13:03;;;;;;;16.35;3.00;;;;;;;;;;4995798;28;20086;-24
2022/11/11 11:15:31;;;;;;;20.55;5.50;;;;;;;;;;4996027;28;20038;-23
2022/11/11 11:18:09;;;;;;;14.32;4.05;;;;;;;;;;4996300;28;20039;-24
2022/11/11 11:20:35;;;;;;;20.70;3.95;;;;;;;;;;4995510;28;20481;-25
2022/11/11 11:23:01;;;;;;;9.77;3.45;;;;;;;;;;4995535;28;20022;-28
2022/11/11 11:25:29;;;;;;;15.63;4.10;;;;;;;;;;4978334;28;20117;-24
2022/11/11 11:28:14;;;;;;;7.85;3.50;;;;;;;;;;4995458;28;20102;-23
2022/11/11 11:30:40;;;;;;;15.02;4.03;;;;;;;;;;4995616;28;20117;-24
2022/11/11 11:33:07;;;;;;;13.20;3.65;;;;;;;;;;4995545;28;20030;-24
2022/11/11 11:35:38;;;;;;;14.43;4.30;;;;;;;;;;4995634;28;20492;-24
2022/11/11 11:38:05;;;;;;;8.25;4.43;;;;;;;;;;4995567;28;20061;-24
2022/11/11 11:41:06;;;;;;;16.98;4.03;;;;;;;;;;4995578;28;20110;-26
2022/11/11 11:43:34;;;;;;;20.83;3.70;;;;;;;;;;4916845;29;20230;-24
2022/11/11 11:46:01;;;;;;;18.15;4.65;;;;;;;;;;4980362;28;20096;-26
2022/11/11 11:48:30;;;;;;;21.25;5.38;;;;;;;;;;4978095;28;20038;-25
2022/11/11 11:51:06;;;;;;;29.10;3.92;;;;;;;;;;4995487;28;20369;-23
2022/11/11 11:53:35;;;;;;;15.13;3.40;;;;;;;;;;4995267;28;20547;-32
2022/11/11 11:56:13;;;;;;;21.13;4.15;;;;;;;;;;4995060;28;20033;-28
2022/11/11 11:58:57;;;;;;;19.85;4.25;;;;;;;;;;4995029;28;20037;-26
2022/11/11 12:01:29;;;;;;;27.17;3.65;;;;;;;;;;4995437;28;20027;-26
2022/11/11 12:03:55;;;;;;;30.42;4.57;;;;;;;;;;4994893;28;20049;-25
2022/11/11 12:06:30;;;;;;;28.60;3.88;;;;;;;;;;4995194;28;20472;-28
2022/11/11 12:08:56;;;;;;;32.67;5.10;;;;;;;;;;4995200;28;20038;-25
2022/11/11 12:11:28;;;;;;;17.33;4.75;;;;;;;;;;4995031;28;20049;-26
2022/11/11 12:13:54;;;;;;;25.42;4.68;;;;;;;;;;4995062;28;20048;-24
2022/11/11 12:16:20;;;;;;;18.35;4.45;;;;;;;;;;4994985;28;20465;-31
2022/11/11 12:19:03;;;;;;;18.10;4.82;;;;;;;;;;4994938;28;20030;-23
2022/11/11 12:21:49;;;;;;;22.20;4.93;;;;;;;;;;4995253;28;20058;-25
2022/11/11 12:24:27;;;;;;;35.03;4.13;;;;;;;;;;4958867;28;20037;-24
2022/11/11 12:26:54;;;;;;;26.30;4.85;;;;;;;;;;4999025;28;20027;-23
2022/11/11 12:29:46;;;;;;;37.17;4.00;;;;;;;;;;4998703;28;20096;-26
2022/11/11 12:32:26;;;;;;;24.98;4.32;;;;;;;;;;4998934;28;20026;-30
2022/11/11 12:34:58;;;;;;;28.80;3.72;;;;;;;;;;4998875;28;20048;-24
2022/11/11 12:37:27;;;;;;;52.45;7.97;;;;;;;;;;4998531;28;20101;-25
2022/11/11 12:39:56;;;;;;;38.97;7.32;;;;;;;;;;4999313;28;20022;-24
2022/11/11 12:42:22;;;;;;;28.73;7.90;;;;;;;;;;4998408;28;20508;-25
2022/11/11 12:44:55;;;;;;;21.45;4.28;;;;;;;;;;4998741;28;20042;-28
2022/11/11 12:47:35;;;;;;;32.88;5.07;;;;;;;;;;4998646;28;20113;-25
2022/11/11 12:50:07;;;;;;;35.45;4.82;;;;;;;;;;4998612;28;20105;-24
2022/11/11 12:52:36;;;;;;;41.00;4.50;;;;;;;;;;4998236;28;20037;-25
2022/11/11 12:55:41;;;;;;;28.95;5.22;;;;;;;;;;4998439;28;20406;-26
2022/11/11 12:58:28;;;;;;;27.17;4.15;;;;;;;;;;4919938;29;20119;-24
2022/11/11 13:01:03;;;;;;;25.30;4.15;;;;;;;;;;4891771;29;20047;-24
2022/11/11 13:03:45;;;;;;;28.92;4.50;;;;;;;;;;4972849;28;20043;-26
2022/11/11 13:06:23;;;;;;;46.10;5.95;;;;;;;;;;4998301;28;20018;-25
2022/11/11 13:08:56;;;;;;;17.33;3.65;;;;;;;;;;4997958;28;20049;-25
2022/11/11 13:11:47;;;;;;;30.27;4.03;;;;;;;;;;4998267;28;20034;-26
2022/11/11 13:14:13;;;;;;;25.55;4.20;;;;;;;;;;4998182;28;20421;-24
2022/11/11 13:16:39;;;;;;;24.00;4.43;;;;;;;;;;4997858;28;20096;-29
2022/11/11 13:19:20;;;;;;;21.38;3.28;;;;;;;;;;4997756;28;20331;-24
2022/11/11 13:21:50;;;;;;;11.85;3.30;;;;;;;;;;4998024;28;20022;-24
2022/11/11 13:24:19;;;;;;;18.52;4.40;;;;;;;;;;4997748;28;20027;-24
2022/11/11 13:26:51;;;;;;;23.75;4.47;;;;;;;;;;4997644;28;20089;-25
2022/11/11 13:29:36;;;;;;;26.08;6.70;;;;;;;;;;4997924;28;20338;-26
2022/11/11 13:32:03;;;;;;;32.42;4.47;;;;;;;;;;4997712;28;20026;-23
2022/11/11 13:34:33;;;;;;;28.65;5.07;;;;;;;;;;4980259;28;20157;-25
2022/11/11 13:37:00;;;;;;;30.45;4.72;;;;;;;;;;4997619;28;20365;-26
2022/11/11 13:39:32;;;;;;;22.27;5.32;;;;;;;;;;4997453;28;20026;-26
2022/11/11 13:41:59;;;;;;;15.73;4.15;;;;;;;;;;4997439;28;20026;-28
2022/11/11 13:44:33;;;;;;;23.20;4.88;;;;;;;;;;4997428;28;20097;-27
2022/11/11 13:47:02;;;;;;;27.25;4.50;;;;;;;;;;4997313;28;20364;-27
2022/11/11 13:49:34;;;;;;;33.47;4.18;;;;;;;;;;4997305;28;20022;-25
2022/11/11 13:52:01;;;;;;;21.50;4.82;;;;;;;;;;4997383;28;20034;-27
2022/11/11 13:54:50;;;;;;;30.95;7.32;;;;;;;;;;4997890;28;20370;-24
2022/11/11 13:57:28;;;;;;;22.20;3.72;;;;;;;;;;4986954;28;20100;-24
2022/11/11 13:59:59;;;;;;;21.00;3.60;;;;;;;;;;4997210;28;20030;-33
2022/11/11 14:02:25;;;;;;;;;;;;;;;;;;4997315;28;20054;-30
2022/11/11 14:05:01;;;;;;;19.27;4.78;;;;;;;;;;4997194;28;19925;-28
2022/11/11 14:07:46;;;;;;;22.60;3.45;;;;;;;;;;4996979;28;20030;-26
2022/11/11 14:10:18;;;;;;;19.70;4.22;;;;;;;;;;4996871;28;20034;-25
2022/11/11 14:12:45;;;;;;;22.00;3.17;;;;;;;;;;4996689;28;20054;-24
2022/11/11 14:15:30;;;;;;;23.00;4.53;;;;;;;;;;4996772;28;20034;-25
2022/11/11 14:17:56;;;;;;;18.90;4.20;;;;;;;;;;4996556;28;20466;-28
2022/11/11 14:20:36;;;;;;;22.35;4.20;;;;;;;;;;4996639;28;20022;-31
2022/11/11 14:23:18;;;;;;;20.70;3.67;;;;;;;;;;4996472;28;20034;-28
2022/11/11 14:25:45;;;;;;;23.48;4.13;;;;;;;;;;4996536;28;20069;-28
2022/11/11 14:28:26;;;;;;;20.58;3.95;;;;;;;;;;4996516;28;20040;-29
2022/11/11 14:30:53;;;;;;;15.50;3.83;;;;;;;;;;4996381;28;20089;-28
2022/11/11 14:33:38;;;;;;;18.00;3.35;;;;;;;;;;4996372;28;20050;-24
2022/11/11 14:36:11;;;;;;;16.38;4.07;;;;;;;;;;4996283;28;20053;-24
2022/11/11 14:38:55;;;;;;;16.00;3.30;;;;;;;;;;4996521;28;20121;-26
2022/11/11 14:41:40;;;;;;;16.95;3.78;;;;;;;;;;4996292;28;20037;-24
2022/11/11 14:44:28;;;;;;;16.02;3.40;;;;;;;;;;4996142;28;20041;-25
2022/11/11 14:47:03;;;;;;;21.75;5.05;;;;;;;;;;4995629;28;20113;-25
2022/11/11 14:49:41;;;;;;;11.32;3.03;;;;;;;;;;4996183;28;20026;-26
2022/11/11 14:52:23;;;;;;;20.08;3.53;;;;;;;;;;4996316;28;20031;-28
2022/11/11 14:54:58;;;;;;;13.55;4.72;;;;;;;;;;4996735;28;20027;-25
2022/11/11 14:57:26;;;;;;;20.42;3.97;;;;;;;;;;4996130;28;20073;-25
2022/11/11 14:59:55;;;;;;;20.90;4.03;;;;;;;;;;4995865;28;20030;-28
2022/11/11 15:02:29;;;;;;;27.73;4.13;;;;;;;;;;4995640;28;20050;-25
2022/11/11 15:04:57;;;;;;;14.35;3.55;;;;;;;;;;4995839;28;20029;-24
2022/11/11 15:07:44;;;;;;;20.27;3.42;;;;;;;;;;4978702;28;20045;-25
2022/11/11 15:10:33;;;;;;;12.95;4.22;;;;;;;;;;4994498;28;20038;-28
2022/11/11 15:13:12;;;;;;;13.27;4.03;;;;;;;;;;4985693;28;20046;-24
2022/11/11 15:15:47;;;;;;;22.13;3.70;;;;;;;;;;4996077;28;20370;-26
2022/11/11 15:18:13;;;;;;;15.27;4.25;;;;;;;;;;4995841;28;20424;-27
2022/11/11 15:21:00;;;;;;;22.23;3.42;;;;;;;;;;4995761;28;20030;-24
2022/11/11 15:23:26;;;;;;;17.63;3.47;;;;;;;;;;4995856;28;20034;-25
2022/11/11 15:25:59;;;;;;;14.38;3.33;;;;;;;;;;4995700;28;20022;-25
2022/11/11 15:28:57;;;;;;;10.55;3.70;;;;;;;;;;4995442;28;20113;-27
2022/11/11 15:31:28;;;;;;;19.30;3.83;;;;;;;;;;4952981;28;20038;-24
2022/11/11 15:34:17;;;;;;;17.33;4.43;;;;;;;;;;4995701;28;20421;-23
2022/11/11 15:36:55;;;;;;;12.02;3.80;;;;;;;;;;4943059;28;20465;-30
2022/11/11 15:39:24;;;;;;;21.08;4.35;;;;;;;;;;4995373;28;20030;-24
2022/11/11 15:41:52;;;;;;;17.13;3.10;;;;;;;;;;4995300;28;20365;-24
2022/11/11 15:44:21;;;;;;;16.90;3.50;;;;;;;;;;4995329;28;20022;-24
2022/11/11 15:46:48;;;;;;;9.68;3.67;;;;;;;;;;4995264;28;20106;-26
2022/11/11 15:49:15;;;;;;;14.07;3.47;;;;;;;;;;4995184;28;20037;-25
2022/11/11 15:51:41;;;;;;;13.70;3.53;;;;;;;;;;4995211;28;20057;-24
2022/11/11 15:54:21;;;;;;;12.60;3.42;;;;;;;;;;4995458;28;20488;-25
2022/11/11 15:56:48;;;;;;;6.78;2.58;;;;;;;;;;4979117;28;20121;-24
2022/11/11 15:59:25;;;;;;;17.90;5.20;;;;;;;;;;4994346;28;20041;-26
2022/11/11 16:01:51;;;;;;;9.05;3.13;;;;;;;;;;4995042;28;20125;-25
2022/11/11 16:04:19;;;;;;;15.00;3.50;;;;;;;;;;4994836;28;20051;-28
2022/11/11 16:06:46;;;;;;;21.55;3.83;;;;;;;;;;4995041;28;20357;-26
2022/11/11 16:09:18;;;;;;;12.85;3.50;;;;;;;;;;4994918;28;20031;-25